Time;durP1;ratioP1;P1;durP2;ratioP2;P2;SDS_P1;SDS_P2;PMS_P1;PMS_P2;Temp;Humidity;BMP_temperature;BMP_pressure;BME280_temperature;BME280_humidity;BME280_pressure;Samples;Min_cycle;Max_cycle;Signal;HPM_P1;HPM_P2
2021/09/21 00:01:21;;;;;;;0.40;0.40;;;;;;;8.69;78.36;99320.54;1791541;78;21527;-51
2021/09/21 00:03:47;;;;;;;0.30;0.30;;;;;;;8.66;78.26;99318.02;1784228;78;22254;-51
2021/09/21 00:06:13;;;;;;;0.60;0.40;;;;;;;8.64;78.08;99321.24;1792276;78;22703;-51
2021/09/21 00:08:40;;;;;;;0.42;0.42;;;;;;;8.60;78.06;99325.00;1792043;78;21033;-51
2021/09/21 00:11:09;;;;;;;2.05;0.60;;;;;;;8.56;78.13;99322.95;1753084;79;22578;-52
2021/09/21 00:13:35;;;;;;;1.30;0.50;;;;;;;8.54;78.15;99330.66;1785310;78;22372;-52
2021/09/21 00:16:04;;;;;;;0.78;0.40;;;;;;;8.51;78.03;99320.93;1781619;78;21526;-52
2021/09/21 00:18:30;;;;;;;0.40;0.37;;;;;;;8.51;78.14;99325.42;1791511;78;21391;-52
2021/09/21 00:20:58;;;;;;;0.60;0.40;;;;;;;8.52;78.09;99325.83;1788822;78;20873;-51
2021/09/21 00:23:25;;;;;;;1.30;0.37;;;;;;;8.51;78.21;99324.08;1787336;78;21609;-51
2021/09/21 00:25:53;;;;;;;0.40;0.40;;;;;;;8.50;78.22;99323.25;1754470;79;21684;-51
2021/09/21 00:28:19;;;;;;;1.42;0.57;;;;;;;8.49;77.90;99322.84;1785259;78;22589;-52
2021/09/21 00:30:50;;;;;;;0.47;0.47;;;;;;;8.44;78.07;99327.53;1790037;78;21468;-52
2021/09/21 00:33:20;;;;;;;0.40;0.40;;;;;;;8.42;78.15;99321.86;1789078;78;21534;-51
2021/09/21 00:35:52;;;;;;;0.93;0.40;;;;;;;8.40;78.21;99319.71;1791852;78;20941;-52
2021/09/21 00:38:21;;;;;;;0.50;0.50;;;;;;;8.39;78.31;99324.67;1784460;78;21112;-52
2021/09/21 00:40:48;;;;;;;0.50;0.40;;;;;;;8.38;78.23;99324.27;1790903;78;20948;-52
2021/09/21 00:43:20;;;;;;;0.50;0.40;;;;;;;8.35;78.30;99326.14;1795016;78;20873;-52
2021/09/21 00:45:50;;;;;;;1.95;0.40;;;;;;;8.35;78.41;99333.31;1764774;79;20978;-52
2021/09/21 00:48:18;;;;;;;0.88;0.50;;;;;;;8.34;78.47;99328.42;1762573;79;21068;-51
2021/09/21 00:50:44;;;;;;;0.42;0.40;;;;;;;8.34;78.41;99333.78;1763298;79;21095;-52
2021/09/21 00:53:12;;;;;;;0.50;0.47;;;;;;;8.33;78.45;99332.07;1757332;79;22283;-52
2021/09/21 00:55:40;;;;;;;0.70;0.50;;;;;;;8.34;78.40;99332.91;1784659;78;21549;-52
2021/09/21 00:58:07;;;;;;;3.08;0.50;;;;;;;8.29;78.38;99327.73;1782766;78;21108;-51
2021/09/21 01:00:34;;;;;;;0.53;0.50;;;;;;;8.27;78.41;99332.30;1780187;78;21057;-52
2021/09/21 01:03:00;;;;;;;0.50;0.40;;;;;;;8.27;78.47;99332.30;1778410;78;21064;-52
2021/09/21 01:05:26;;;;;;;0.60;0.42;;;;;;;8.27;78.38;99333.62;1777566;78;21052;-52
2021/09/21 01:07:53;;;;;;;0.37;0.35;;;;;;;8.27;78.39;99334.97;1784308;78;21157;-53
2021/09/21 01:10:24;;;;;;;0.80;0.60;;;;;;;8.29;78.38;99334.44;1786725;78;21021;-52
2021/09/21 01:12:51;;;;;;;0.62;0.40;;;;;;;8.28;78.35;99335.84;1788484;78;21029;-52
2021/09/21 01:15:17;;;;;;;0.95;0.50;;;;;;;8.27;78.29;99342.14;1781480;78;21055;-52
2021/09/21 01:17:45;;;;;;;1.22;0.45;;;;;;;8.26;78.29;99351.13;1784197;78;22653;-52
2021/09/21 01:20:12;;;;;;;0.50;0.40;;;;;;;8.22;78.23;99345.52;1779188;78;21526;-52
2021/09/21 01:22:39;;;;;;;0.60;0.40;;;;;;;8.17;77.99;99345.70;1743043;80;21148;-52
2021/09/21 01:25:08;;;;;;;0.50;0.40;;;;;;;8.14;78.03;99348.55;1750519;80;21129;-52
2021/09/21 01:27:36;;;;;;;1.60;0.40;;;;;;;8.10;77.99;99346.92;1757045;80;20965;-52
2021/09/21 01:30:04;;;;;;;0.62;0.40;;;;;;;8.08;77.95;99343.44;1779766;78;21606;-52
2021/09/21 01:32:31;;;;;;;1.75;0.40;;;;;;;8.08;77.94;99343.94;1782838;78;21100;-52
2021/09/21 01:35:00;;;;;;;1.10;0.40;;;;;;;8.09;77.92;99344.30;1776957;78;21009;-52
2021/09/21 01:37:28;;;;;;;0.50;0.50;;;;;;;8.09;77.85;99350.54;1750067;80;21105;-52
2021/09/21 01:39:54;;;;;;;0.50;0.40;;;;;;;8.09;77.77;99349.67;1780807;78;21684;-52
2021/09/21 01:42:21;;;;;;;0.40;0.40;;;;;;;8.06;77.75;99345.34;1786594;78;21601;-52
2021/09/21 01:44:49;;;;;;;0.50;0.40;;;;;;;8.05;77.79;99344.93;1744333;80;22436;-52
2021/09/21 01:47:19;;;;;;;0.40;0.40;;;;;;;8.06;77.83;99345.80;1781809;78;21068;-53
2021/09/21 01:52:20;;;;;;;0.33;0.33;;;;;;;8.06;77.89;99352.50;1781116;78;21049;-52
2021/09/21 01:55:01;;;;;;;0.72;0.40;;;;;;;8.06;77.99;99354.72;1776190;78;21120;-52
2021/09/21 01:59:59;;;;;;;3.12;0.50;;;;;;;8.07;77.86;99346.20;1779284;78;21845;-52
2021/09/21 02:02:25;;;;;;;0.50;0.40;;;;;;;8.07;77.79;99348.42;1784278;78;20972;-50
2021/09/21 02:04:52;;;;;;;0.50;0.40;;;;;;;8.06;77.75;99349.83;1788126;78;21451;-51
2021/09/21 02:07:18;;;;;;;1.05;0.40;;;;;;;8.03;77.69;99352.16;1782892;78;22330;-51
2021/09/21 02:09:45;;;;;;;3.12;0.30;;;;;;;8.04;77.65;99349.02;1783589;78;21834;-52
2021/09/21 02:12:13;;;;;;;0.40;0.40;;;;;;;8.04;77.61;99353.91;1782657;78;21303;-50
2021/09/21 02:14:40;;;;;;;0.88;0.25;;;;;;;8.03;77.64;99351.29;1781880;78;21099;-51
2021/09/21 02:17:07;;;;;;;0.42;0.35;;;;;;;8.01;77.65;99354.03;1783679;78;21092;-52
2021/09/21 02:19:34;;;;;;;0.60;0.30;;;;;;;7.98;77.58;99355.06;1781003;78;21055;-50
2021/09/21 02:22:02;;;;;;;0.33;0.33;;;;;;;7.97;77.52;99352.44;1770374;79;21084;-51
2021/09/21 02:24:29;;;;;;;0.40;0.40;;;;;;;7.94;77.56;99359.27;1760264;80;21040;-52
2021/09/21 02:26:55;;;;;;;0.30;0.30;;;;;;;7.92;77.56;99353.97;1786011;78;21091;-51
2021/09/21 02:29:22;;;;;;;1.07;0.30;;;;;;;7.92;77.55;99359.79;1758775;80;21103;-50
2021/09/21 02:31:49;;;;;;;0.47;0.30;;;;;;;7.90;77.55;99356.33;1786138;78;21310;-52
2021/09/21 02:34:15;;;;;;;0.30;0.30;;;;;;;7.92;77.62;99355.77;1746093;80;21861;-51
2021/09/21 02:36:41;;;;;;;0.30;0.30;;;;;;;7.93;77.61;99357.52;1777588;78;21076;-51
2021/09/21 02:39:10;;;;;;;1.45;0.50;;;;;;;7.94;77.59;99356.59;1779680;78;21025;-52
2021/09/21 02:41:38;;;;;;;0.40;0.40;;;;;;;7.96;77.55;99356.06;1784510;78;21071;-51
2021/09/21 02:44:05;;;;;;;1.30;0.30;;;;;;;7.96;77.44;99362.29;1783370;78;21046;-51
2021/09/21 02:46:33;;;;;;;1.27;0.30;;;;;;;7.94;77.40;99352.09;1780451;78;21016;-51
2021/09/21 02:48:59;;;;;;;0.30;0.30;;;;;;;7.91;77.44;99356.23;1787462;78;21127;-51
2021/09/21 02:51:25;;;;;;;0.42;0.37;;;;;;;7.89;77.45;99360.82;1782182;78;21135;-52
2021/09/21 02:53:53;;;;;;;0.50;0.35;;;;;;;7.88;77.59;99363.09;1781070;78;21091;-51
2021/09/21 02:56:21;;;;;;;0.55;0.30;;;;;;;7.90;77.69;99369.27;1779250;78;21152;-51
2021/09/21 02:58:47;;;;;;;0.80;0.30;;;;;;;7.93;77.87;99369.11;1743239;80;21136;-52
2021/09/21 03:01:14;;;;;;;1.10;0.30;;;;;;;7.97;77.90;99361.83;1775382;78;21061;-51
2021/09/21 03:03:48;;;;;;;0.72;0.72;;;;;;;7.97;77.92;99368.05;1781606;78;21134;-51
2021/09/21 03:06:19;;;;;;;1.17;0.40;;;;;;;7.96;77.82;99369.45;1775285;78;21634;-50
2021/09/21 03:08:38;;;;;;;2.27;0.30;;;;;;;7.93;77.87;99369.11;1781973;78;21077;-52
2021/09/21 03:11:19;;;;;;;0.75;0.30;;;;;;;7.92;77.84;99367.83;1776172;78;21158;-51
2021/09/21 03:19:06;;;;;;;0.50;0.30;;;;;;;7.92;77.77;99367.83;1784374;78;21085;-52
2021/09/21 03:21:35;;;;;;;0.50;0.30;;;;;;;7.92;77.67;99372.72;1791017;78;20914;-51
2021/09/21 03:24:01;;;;;;;0.50;0.30;;;;;;;7.91;77.55;99375.50;1785410;78;21156;-51
2021/09/21 03:26:27;;;;;;;1.10;0.33;;;;;;;7.89;77.29;99377.36;1783785;78;21088;-50
2021/09/21 03:28:54;;;;;;;2.05;0.30;;;;;;;7.85;77.15;99371.25;1778940;78;21065;-52
2021/09/21 03:31:20;;;;;;;1.30;0.30;;;;;;;7.84;76.95;99376.67;1781232;78;21151;-50
2021/09/21 03:33:46;;;;;;;0.33;0.30;;;;;;;7.80;76.90;99373.73;1786190;78;21163;-52
2021/09/21 03:36:13;;;;;;;0.30;0.20;;;;;;;7.77;76.85;99376.08;1781299;78;22495;-50
2021/09/21 03:38:39;;;;;;;0.25;0.20;;;;;;;7.76;76.83;99378.34;1774587;78;21417;-49
2021/09/21 03:41:07;;;;;;;0.60;0.20;;;;;;;7.76;76.83;99379.69;1778046;78;21494;-50
2021/09/21 03:43:33;;;;;;;2.50;0.20;;;;;;;7.77;76.69;99376.08;1777831;78;21088;-51
2021/09/21 03:46:00;;;;;;;0.75;0.20;;;;;;;7.77;76.65;99379.22;1780024;78;21067;-51
2021/09/21 03:48:27;;;;;;;1.82;0.85;;;;;;;7.78;76.60;99378.28;1775650;78;23424;-51
2021/09/21 03:50:53;;;;;;;0.95;0.55;;;;;;;7.77;76.53;99375.20;1779845;78;21674;-50
2021/09/21 03:53:19;;;;;;;0.30;0.30;;;;;;;7.77;76.37;99374.73;1781852;78;21099;-50
2021/09/21 03:55:47;;;;;;;0.37;0.30;;;;;;;7.74;76.29;99375.35;1783005;78;21173;-50
2021/09/21 03:58:14;;;;;;;0.57;0.20;;;;;;;7.72;76.33;99375.87;1779955;78;21084;-51
2021/09/21 04:00:40;;;;;;;1.32;0.20;;;;;;;7.71;76.35;99366.97;1782180;78;21120;-52
2021/09/21 04:03:06;;;;;;;1.35;0.20;;;;;;;7.70;76.45;99363.01;1783329;78;21706;-51
2021/09/21 04:05:34;;;;;;;0.33;0.20;;;;;;;7.73;76.59;99366.91;1754630;80;21094;-50
2021/09/21 04:08:00;;;;;;;0.40;0.20;;;;;;;7.73;76.51;99369.59;1748100;80;21077;-51
2021/09/21 04:10:26;;;;;;;0.30;0.20;;;;;;;7.73;76.54;99368.25;1778855;78;21044;-50
2021/09/21 04:12:53;;;;;;;0.50;0.45;;;;;;;7.72;76.62;99372.73;1781656;78;21278;-52
2021/09/21 04:15:19;;;;;;;0.20;0.20;;;;;;;7.72;76.64;99378.56;1780322;78;21594;-51
2021/09/21 04:17:45;;;;;;;0.45;0.23;;;;;;;7.71;76.72;99388.40;1781480;78;21024;-51
2021/09/21 04:20:12;;;;;;;0.30;0.30;;;;;;;7.70;76.63;99381.77;1775550;78;20984;-51
2021/09/21 04:22:42;;;;;;;0.40;0.20;;;;;;;7.70;76.68;99383.10;1789619;78;21084;-51
2021/09/21 04:25:08;;;;;;;2.37;0.20;;;;;;;7.70;76.65;99381.77;1789994;78;21148;-51
2021/09/21 04:27:34;;;;;;;0.30;0.20;;;;;;;7.70;76.70;99379.95;1791812;78;20941;-51
2021/09/21 04:30:04;;;;;;;0.30;0.20;;;;;;;7.71;76.73;99378.16;1788815;78;21012;-51
2021/09/21 04:32:30;;;;;;;1.12;0.25;;;;;;;7.73;76.70;99375.81;1781074;78;21033;-52
2021/09/21 04:34:56;;;;;;;1.45;0.20;;;;;;;7.74;76.64;99380.71;1783467;78;21063;-52
2021/09/21 04:37:22;;;;;;;0.20;0.20;;;;;;;7.74;76.62;99377.53;1780995;78;21221;-51
2021/09/21 04:39:49;;;;;;;0.30;0.20;;;;;;;7.70;76.49;99375.94;1784577;78;21049;-52
2021/09/21 04:42:18;;;;;;;2.52;0.30;;;;;;;7.68;76.45;99371.57;1786035;78;21128;-51
2021/09/21 04:44:43;;;;;;;0.20;0.20;;;;;;;7.67;76.49;99375.18;1790252;78;20969;-51
2021/09/21 04:47:11;;;;;;;0.30;0.30;;;;;;;7.68;76.58;99364.88;1783647;78;21084;-51
2021/09/21 04:49:39;;;;;;;0.60;0.30;;;;;;;7.71;76.66;99370.11;1791886;78;21125;-50
2021/09/21 04:52:05;;;;;;;0.20;0.20;;;;;;;7.75;76.66;99375.27;1780041;78;21167;-50
2021/09/21 04:54:31;;;;;;;0.95;0.20;;;;;;;7.79;76.58;99377.35;1749864;80;21048;-50
2021/09/21 04:56:59;;;;;;;3.15;0.25;;;;;;;7.83;76.60;99373.59;1783537;78;21037;-49
2021/09/21 04:59:27;;;;;;;0.30;0.30;;;;;;;7.84;76.57;99378.02;1782592;78;21083;-50
2021/09/21 05:01:54;;;;;;;0.30;0.20;;;;;;;7.85;76.29;99375.27;1748147;80;22364;-49
2021/09/21 05:04:20;;;;;;;0.25;0.20;;;;;;;7.86;76.23;99374.81;1777878;78;21647;-50
2021/09/21 05:06:46;;;;;;;0.30;0.20;;;;;;;7.86;76.19;99372.12;1786455;78;21065;-50
2021/09/21 05:09:15;;;;;;;0.30;0.20;;;;;;;7.89;76.17;99376.03;1775454;79;21064;-50
2021/09/21 05:11:47;;;;;;;0.20;0.20;;;;;;;7.92;76.14;99367.37;1755879;80;21136;-50
2021/09/21 05:14:13;;;;;;;3.00;0.20;;;;;;;7.97;76.05;99372.08;1780089;78;21081;-51
2021/09/21 05:16:41;;;;;;;0.60;0.20;;;;;;;8.00;75.83;99372.39;1778848;78;21487;-52
2021/09/21 05:19:11;;;;;;;0.28;0.20;;;;;;;7.97;75.79;99373.42;1745381;80;20954;-49
2021/09/21 05:21:40;;;;;;;0.20;0.20;;;;;;;7.96;75.74;99377.50;1794571;78;21728;-50
2021/09/21 05:24:08;;;;;;;0.20;0.20;;;;;;;7.94;75.55;99375.34;1754152;80;21127;-49
2021/09/21 05:26:36;;;;;;;0.20;0.20;;;;;;;7.94;75.50;99383.38;1756530;80;21471;-50
2021/09/21 05:29:04;;;;;;;1.95;0.20;;;;;;;7.94;75.58;99376.69;1753736;80;22325;-49
2021/09/21 05:31:31;;;;;;;0.20;0.10;;;;;;;7.98;75.51;99381.86;1753150;80;21483;-51
2021/09/21 05:33:57;;;;;;;0.60;0.20;;;;;;;8.01;75.37;99372.80;1755465;80;21108;-50
2021/09/21 05:36:23;;;;;;;0.15;0.10;;;;;;;8.06;75.21;99377.50;1786378;78;21064;-50
2021/09/21 05:38:49;;;;;;;2.65;0.20;;;;;;;8.06;75.12;99380.19;1779477;78;22003;-50
2021/09/21 05:41:16;;;;;;;0.40;0.30;;;;;;;8.04;74.97;99369.12;1750216;80;21742;-51
2021/09/21 05:43:42;;;;;;;0.40;0.20;;;;;;;8.02;74.91;99371.86;1757826;80;21118;-50
2021/09/21 05:46:09;;;;;;;0.20;0.20;;;;;;;8.01;74.77;99371.45;1753676;80;21081;-51
2021/09/21 05:48:36;;;;;;;0.40;0.20;;;;;;;7.96;74.56;99373.48;1751783;80;21081;-50
2021/09/21 05:51:04;;;;;;;1.55;0.10;;;;;;;7.93;74.55;99374.47;1778337;78;21057;-49
2021/09/21 05:53:30;;;;;;;0.28;0.10;;;;;;;7.93;74.62;99380.30;1783752;78;21088;-51
2021/09/21 05:55:57;;;;;;;0.30;0.13;;;;;;;7.92;74.48;99374.06;1782386;78;21030;-52
2021/09/21 05:58:23;;;;;;;2.83;0.10;;;;;;;7.90;74.51;99376.44;1783179;78;21055;-50
2021/09/21 06:00:51;;;;;;;0.20;0.13;;;;;;;7.87;74.62;99373.41;1779889;78;21049;-50
2021/09/21 06:03:17;;;;;;;2.25;0.20;;;;;;;7.88;74.79;99372.94;1783950;78;23319;-51
2021/09/21 06:05:45;;;;;;;0.20;0.10;;;;;;;7.87;74.85;99372.06;1746302;80;21066;-51
2021/09/21 06:08:11;;;;;;;0.30;0.10;;;;;;;7.87;74.76;99369.39;1778473;78;21049;-50
2021/09/21 06:10:38;;;;;;;0.20;0.20;;;;;;;7.89;74.92;99373.34;1781577;78;21489;-51
2021/09/21 06:13:06;;;;;;;1.07;0.10;;;;;;;7.92;74.86;99378.09;1773576;78;21622;-51
2021/09/21 06:15:33;;;;;;;0.13;0.10;;;;;;;7.94;74.84;99373.54;1774141;78;22482;-51
2021/09/21 06:18:01;;;;;;;0.23;0.10;;;;;;;7.95;74.77;99374.41;1784936;78;20891;-51
2021/09/21 06:20:29;;;;;;;0.82;0.10;;;;;;;7.97;74.88;99388.63;1748562;80;21052;-51
2021/09/21 06:22:57;;;;;;;0.20;0.20;;;;;;;7.98;74.78;99374.29;1773116;79;21100;-51
2021/09/21 06:25:23;;;;;;;0.20;0.15;;;;;;;7.99;74.80;99372.85;1774933;79;21089;-51
2021/09/21 06:27:49;;;;;;;0.47;0.20;;;;;;;8.00;74.83;99381.77;1781026;78;22587;-50
2021/09/21 06:30:16;;;;;;;0.33;0.20;;;;;;;8.01;74.58;99374.13;1752351;80;21204;-49
2021/09/21 06:32:43;;;;;;;0.33;0.17;;;;;;;8.01;74.65;99374.13;1778786;78;21067;-49
2021/09/21 06:35:09;;;;;;;0.10;0.10;;;;;;;8.02;74.56;99377.69;1783361;78;21069;-50
2021/09/21 06:37:36;;;;;;;0.10;0.10;;;;;;;8.03;74.48;99374.95;1781484;78;21298;-51
2021/09/21 06:40:03;;;;;;;0.20;0.10;;;;;;;8.04;74.36;99369.99;1782408;78;21101;-50
2021/09/21 06:42:32;;;;;;;1.12;0.13;;;;;;;8.07;74.37;99373.89;1780441;78;21037;-50
2021/09/21 06:44:59;;;;;;;0.17;0.10;;;;;;;8.09;74.38;99373.33;1785619;78;21447;-51
2021/09/21 06:47:26;;;;;;;0.20;0.10;;;;;;;8.09;74.27;99378.69;1781409;78;21226;-50
2021/09/21 06:49:52;;;;;;;0.20;0.10;;;;;;;8.08;74.17;99390.84;1782462;78;21735;-50
2021/09/21 06:52:20;;;;;;;0.13;0.10;;;;;;;8.05;74.18;99385.14;1778833;78;21468;-50
2021/09/21 06:54:48;;;;;;;0.17;0.10;;;;;;;8.02;74.26;99385.73;1786550;78;21375;-51
2021/09/21 06:57:14;;;;;;;0.10;0.10;;;;;;;8.02;74.21;99391.96;1789655;78;21452;-50
2021/09/21 06:59:40;;;;;;;0.15;0.10;;;;;;;8.07;74.10;99393.13;1794374;78;21331;-52
2021/09/21 07:02:07;;;;;;;0.20;0.10;;;;;;;8.10;74.10;99384.45;1789418;78;20902;-52
2021/09/21 07:04:33;;;;;;;0.10;0.10;;;;;;;8.14;74.18;99383.86;1791090;78;21082;-49
2021/09/21 07:06:59;;;;;;;0.10;0.10;;;;;;;8.17;74.06;99389.94;1797575;78;20901;-50
2021/09/21 07:09:26;;;;;;;0.50;0.20;;;;;;;8.23;74.13;99392.84;1793767;78;20949;-51
2021/09/21 07:11:54;;;;;;;2.37;0.20;;;;;;;8.27;73.98;99398.45;1788296;78;21328;-50
2021/09/21 07:14:21;;;;;;;1.75;0.10;;;;;;;8.27;73.73;99384.58;1761952;79;21492;-49
2021/09/21 07:16:47;;;;;;;0.10;0.10;;;;;;;8.27;73.74;99391.28;1761169;79;21652;-51
2021/09/21 07:19:18;;;;;;;2.83;0.10;;;;;;;8.26;73.61;99400.73;1758364;79;21389;-49
2021/09/21 07:21:47;;;;;;;0.20;0.15;;;;;;;8.26;73.66;99398.92;1782718;78;22259;-52
2021/09/21 07:24:16;;;;;;;0.20;0.20;;;;;;;8.27;73.62;99407.84;1784654;78;21055;-50
2021/09/21 07:26:43;;;;;;;0.30;0.20;;;;;;;8.28;73.51;99402.88;1788594;78;21107;-50
2021/09/21 07:29:10;;;;;;;0.10;0.10;;;;;;;8.30;73.45;99399.20;1796417;78;21485;-51
2021/09/21 07:31:36;;;;;;;0.42;0.10;;;;;;;8.36;73.39;99407.47;1791709;78;21271;-51
2021/09/21 07:34:03;;;;;;;0.30;0.10;;;;;;;8.38;73.38;99402.91;1787041;78;21324;-52
2021/09/21 07:36:31;;;;;;;0.30;0.10;;;;;;;8.38;72.99;99408.74;1793302;78;21669;-52
2021/09/21 07:38:59;;;;;;;0.20;0.10;;;;;;;8.37;73.08;99408.34;1792012;78;21041;-52
2021/09/21 07:41:25;;;;;;;0.20;0.20;;;;;;;8.39;72.99;99410.49;1791796;78;21483;-50
2021/09/21 07:43:52;;;;;;;0.20;0.10;;;;;;;8.40;72.90;99406.87;1791342;78;21013;-51
2021/09/21 07:46:18;;;;;;;0.13;0.10;;;;;;;8.41;72.82;99408.62;1788820;78;21538;-50
2021/09/21 07:48:45;;;;;;;0.30;0.20;;;;;;;8.41;72.75;99408.15;1791683;78;21068;-51
2021/09/21 07:51:12;;;;;;;0.20;0.10;;;;;;;8.44;72.82;99409.33;1790036;78;21080;-51
2021/09/21 07:53:39;;;;;;;0.20;0.10;;;;;;;8.47;72.78;99412.36;1760672;79;21120;-51
2021/09/21 07:56:06;;;;;;;1.17;0.10;;;;;;;8.50;72.63;99416.25;1790257;78;21037;-52
2021/09/21 07:58:32;;;;;;;1.30;0.10;;;;;;;8.51;72.54;99414.81;1789309;78;21353;-52
2021/09/21 08:01:00;;;;;;;1.22;0.20;;;;;;;8.47;72.22;99413.70;1784313;78;21076;-50
2021/09/21 08:03:27;;;;;;;0.33;0.20;;;;;;;8.44;72.19;99419.19;1783666;78;21044;-51
2021/09/21 08:05:53;;;;;;;0.10;0.10;;;;;;;8.41;72.25;99416.20;1782720;78;22771;-50
2021/09/21 08:08:19;;;;;;;0.20;0.10;;;;;;;8.40;71.92;99418.47;1749886;80;21468;-52
2021/09/21 08:12:56;;;;;;;0.20;0.10;;;;;;;8.40;71.62;99414.92;1830755;76;22660;-52
2021/09/21 08:15:25;;;;;;;0.20;0.10;;;;;;;8.35;71.63;99420.47;1804857;78;20996;-51
2021/09/21 08:17:51;;;;;;;0.10;0.10;;;;;;;8.34;71.74;99410.21;1802067;77;22064;-50
2021/09/21 08:20:19;;;;;;;0.17;0.10;;;;;;;8.34;71.62;99414.70;1804637;77;20960;-50
2021/09/21 08:22:46;;;;;;;1.70;0.20;;;;;;;8.31;71.78;99417.54;1804299;77;21003;-52
2021/09/21 08:25:14;;;;;;;0.10;0.10;;;;;;;8.27;71.74;99418.09;1804210;77;22183;-52
2021/09/21 08:27:40;;;;;;;0.35;0.10;;;;;;;8.25;71.85;99413.27;1803379;77;21451;-51
2021/09/21 08:30:07;;;;;;;0.10;0.10;;;;;;;8.27;71.96;99420.78;1807715;78;21435;-49
2021/09/21 08:32:34;;;;;;;0.20;0.10;;;;;;;8.28;71.82;99418.50;1787999;78;21005;-51
2021/09/21 08:35:00;;;;;;;0.10;0.10;;;;;;;8.29;71.58;99420.72;1785010;78;21020;-50
2021/09/21 08:37:27;;;;;;;0.10;0.10;;;;;;;8.28;71.56;99427.89;1786426;78;21021;-51
2021/09/21 08:39:54;;;;;;;0.20;0.10;;;;;;;8.28;71.62;99418.97;1780889;78;21005;-50
2021/09/21 08:42:20;;;;;;;0.17;0.10;;;;;;;8.28;71.76;99423.86;1781425;78;21222;-52
2021/09/21 08:44:47;;;;;;;0.10;0.00;;;;;;;8.29;71.68;99420.25;1781426;78;21093;-51
2021/09/21 08:47:13;;;;;;;0.08;0.05;;;;;;;8.28;71.62;99418.50;1769390;78;21454;-51
2021/09/21 08:49:40;;;;;;;0.10;0.10;;;;;;;8.28;71.50;99418.50;1782643;78;21367;-51
2021/09/21 08:52:06;;;;;;;0.20;0.10;;;;;;;8.30;71.57;99419.78;1781882;78;21437;-51
2021/09/21 08:54:33;;;;;;;0.40;0.10;;;;;;;8.33;71.52;99416.55;1782953;78;21209;-53
2021/09/21 08:57:01;;;;;;;0.60;0.10;;;;;;;8.37;71.36;99425.30;1781799;78;22984;-50
2021/09/21 08:59:32;;;;;;;0.88;0.10;;;;;;;8.37;71.27;99421.28;1780886;78;21076;-51
2021/09/21 09:02:10;;;;;;;2.35;0.17;;;;;;;8.38;70.95;99423.03;1782327;78;21120;-51
2021/09/21 09:04:39;;;;;;;0.23;0.10;;;;;;;8.37;70.84;99427.11;1785659;78;21068;-51
2021/09/21 09:07:06;;;;;;;0.13;0.10;;;;;;;8.38;70.73;99420.81;1787488;78;21323;-52
2021/09/21 09:09:37;;;;;;;1.30;0.10;;;;;;;8.39;70.76;99418.53;1782495;78;21081;-51
2021/09/21 09:12:05;;;;;;;0.20;0.17;;;;;;;8.39;70.78;99433.28;1786205;79;20948;-51
2021/09/21 09:14:38;;;;;;;0.20;0.17;;;;;;;8.42;70.79;99425.12;1782275;78;21858;-52
2021/09/21 09:17:12;;;;;;;0.10;0.10;;;;;;;8.45;70.97;99428.52;1755436;80;20914;-50
2021/09/21 09:19:42;;;;;;;;;;;;;;;8.51;70.92;99434.06;1722959;81;21844;-50
2021/09/21 09:22:17;;;;;;;0.10;0.10;;;;;;;8.53;70.93;99429.51;1741668;80;20092;-52
2021/09/21 09:24:57;;;;;;;0.20;0.20;;;;;;;8.56;71.04;99438.30;1731349;81;21417;-50
2021/09/21 09:27:46;;;;;;;0.20;0.13;;;;;;;8.60;71.05;99448.41;1727206;81;20966;-51
2021/09/21 09:30:21;;;;;;;0.20;0.20;;;;;;;8.64;71.20;99446.88;1742932;80;21109;-51
2021/09/21 09:32:57;;;;;;;0.25;0.20;;;;;;;8.68;71.02;99440.41;1714684;81;21050;-51
2021/09/21 09:35:35;;;;;;;0.23;0.20;;;;;;;8.69;70.95;99442.63;1745891;80;20983;-52
2021/09/21 09:38:08;;;;;;;0.10;0.10;;;;;;;8.70;70.93;99447.05;1747483;80;21256;-52
2021/09/21 09:40:48;;;;;;;0.40;0.10;;;;;;;8.71;70.97;99447.46;1749191;80;20938;-51
2021/09/21 09:43:27;;;;;;;1.67;0.20;;;;;;;8.73;71.00;99441.56;1676644;81;20923;-51
2021/09/21 09:45:55;;;;;;;0.10;0.10;;;;;;;8.75;70.88;99449.55;1672234;81;21054;-51
2021/09/21 09:48:23;;;;;;;0.17;0.10;;;;;;;8.73;70.79;99443.78;1751309;80;21045;-52
2021/09/21 09:50:55;;;;;;;0.10;0.10;;;;;;;8.73;70.67;99446.93;1717186;81;21586;-51
2021/09/21 09:53:23;;;;;;;0.10;0.10;;;;;;;8.74;70.79;99448.67;1748336;80;20989;-51
2021/09/21 09:55:54;;;;;;;0.20;0.10;;;;;;;8.76;70.99;99445.93;1743809;80;20930;-52
2021/09/21 09:58:21;;;;;;;0.28;0.10;;;;;;;8.75;71.03;99447.73;1727800;81;21052;-52
2021/09/21 10:00:49;;;;;;;0.10;0.10;;;;;;;8.76;71.11;99447.27;1731614;81;20910;-51
2021/09/21 10:03:16;;;;;;;0.47;0.10;;;;;;;8.75;70.95;99450.42;1727425;81;20978;-51
2021/09/21 10:05:42;;;;;;;0.10;0.10;;;;;;;8.74;70.96;99448.67;1728810;81;20951;-51
2021/09/21 10:08:09;;;;;;;0.10;0.10;;;;;;;8.75;70.77;99450.89;1730128;81;20985;-52
2021/09/21 10:10:39;;;;;;;0.10;0.10;;;;;;;8.77;70.82;99447.64;1725498;81;21099;-50
2021/09/21 10:13:12;;;;;;;0.20;0.10;;;;;;;8.82;70.95;99446.52;1726894;81;21503;-51
2021/09/21 10:15:40;;;;;;;0.30;0.10;;;;;;;8.89;71.03;99442.59;1726570;81;21087;-51
2021/09/21 10:18:18;;;;;;;0.10;0.10;;;;;;;8.98;71.06;99449.35;1724417;81;21073;-51
2021/09/21 10:21:00;;;;;;;0.10;0.10;;;;;;;9.01;71.07;99446.54;1724117;81;21611;-51
2021/09/21 10:23:36;;;;;;;1.95;0.10;;;;;;;9.04;71.14;99438.31;1727536;81;21590;-51
2021/09/21 10:26:16;;;;;;;0.08;0.05;;;;;;;9.08;70.81;99438.13;1727201;81;21292;-51
2021/09/21 10:28:48;;;;;;;1.27;0.10;;;;;;;9.13;70.53;99445.07;1727048;81;21055;-52
2021/09/21 10:31:17;;;;;;;0.17;0.10;;;;;;;9.14;70.42;99444.13;1729294;81;21394;-52
2021/09/21 10:33:43;;;;;;;0.20;0.10;;;;;;;9.18;70.49;99448.43;1726873;81;21089;-51
2021/09/21 10:36:32;;;;;;;0.10;0.10;;;;;;;9.22;70.39;99451.35;1725284;81;21127;-51
2021/09/21 10:39:06;;;;;;;0.10;0.10;;;;;;;9.26;70.17;99447.59;1725887;81;21083;-50
2021/09/21 10:41:33;;;;;;;0.65;0.10;;;;;;;9.24;69.81;99447.66;1698900;81;21720;-52
2021/09/21 10:44:06;;;;;;;0.10;0.10;;;;;;;9.22;69.62;99450.01;1725362;81;22146;-51
2021/09/21 10:47:04;;;;;;;0.30;0.10;;;;;;;9.15;69.40;99456.15;1728865;81;21101;-52
2021/09/21 10:49:38;;;;;;;0.10;0.10;;;;;;;9.11;69.26;99443.80;1729232;81;21454;-51
2021/09/21 10:52:11;;;;;;;0.10;0.10;;;;;;;9.11;69.32;99458.56;1727538;81;21097;-50
2021/09/21 10:54:46;;;;;;;0.10;0.10;;;;;;;9.14;69.05;99469.17;1726076;81;20981;-52
2021/09/21 10:57:17;;;;;;;0.10;0.08;;;;;;;9.13;68.80;99459.84;1728940;81;20914;-50
2021/09/21 10:59:59;;;;;;;0.28;0.10;;;;;;;9.10;68.78;99463.06;1720967;81;21127;-51
2021/09/21 11:02:40;;;;;;;0.20;0.10;;;;;;;9.08;68.70;99469.00;1727047;81;21058;-52
2021/09/21 11:05:16;;;;;;;1.65;0.10;;;;;;;9.07;68.61;99477.12;1725399;81;21045;-50
2021/09/21 11:07:59;;;;;;;0.10;0.10;;;;;;;8.98;68.53;99471.70;1727927;81;21003;-51
2021/09/21 11:10:34;;;;;;;0.28;0.10;;;;;;;8.90;68.58;99467.16;1728745;81;20977;-51
2021/09/21 11:13:00;;;;;;;0.20;0.10;;;;;;;8.88;68.62;99473.53;1725885;81;21235;-51
2021/09/21 11:15:28;;;;;;;0.72;0.10;;;;;;;8.84;68.67;99465.23;1744598;80;21081;-50
2021/09/21 11:20:32;;;;;;;0.20;0.10;;;;;;;8.88;68.76;99460.98;1864861;75;22359;-50
2021/09/21 11:23:02;;;;;;;0.10;0.10;;;;;;;8.87;68.79;99482.05;1834048;77;21378;-52
2021/09/21 11:25:29;;;;;;;1.55;0.10;;;;;;;8.90;68.96;99477.02;1838625;77;21127;-50
2021/09/21 11:27:58;;;;;;;0.10;0.10;;;;;;;8.91;68.80;99476.95;1831202;77;21329;-51
2021/09/21 11:30:24;;;;;;;0.10;0.10;;;;;;;8.90;68.66;99476.55;1833761;76;20972;-51
2021/09/21 11:32:51;;;;;;;0.10;0.10;;;;;;;8.89;68.64;99474.81;1818316;77;20984;-52
2021/09/21 11:35:18;;;;;;;0.35;0.10;;;;;;;8.90;68.70;99483.27;1813630;77;21278;-51
2021/09/21 11:37:51;;;;;;;0.62;0.10;;;;;;;8.90;68.74;99481.92;1816518;77;21442;-52
2021/09/21 11:40:25;;;;;;;;;;;;;;;8.95;68.92;99481.70;1812525;77;21028;-53
2021/09/21 11:42:52;;;;;;;0.10;0.10;;;;;;;9.01;69.10;99486.34;1813573;77;20488;-50
2021/09/21 11:45:19;;;;;;;0.00;0.00;;;;;;;9.09;68.85;99488.66;1812571;77;21004;-51
2021/09/21 11:47:49;;;;;;;0.05;0.00;;;;;;;9.18;68.63;99482.87;1812702;77;21047;-51
2021/09/21 11:50:19;;;;;;;0.10;0.00;;;;;;;9.22;68.33;99479.55;1809377;77;21226;-51
2021/09/21 11:52:55;;;;;;;0.10;0.10;;;;;;;9.24;68.16;99487.07;1810018;77;21041;-51
2021/09/21 11:55:24;;;;;;;2.75;0.10;;;;;;;9.22;68.03;99497.00;1812256;77;21127;-49
2021/09/21 11:57:51;;;;;;;0.10;0.10;;;;;;;9.18;68.01;99487.37;1814706;77;20855;-51
2021/09/21 12:00:35;;;;;;;0.10;0.10;;;;;;;9.15;68.00;99492.40;1810028;77;21694;-51
2021/09/21 12:03:12;;;;;;;0.17;0.10;;;;;;;9.11;68.13;99494.34;1808856;77;21442;-52